sensor_id;sensor_type;location;lat;lon;timestamp;temperature;humidity
46676;DHT22;32412;51.478;5.694;2022-08-25T00:02:09;22.10;99.90
46676;DHT22;32412;51.478;5.694;2022-08-25T00:04:35;22.10;99.90
46676;DHT22;32412;51.478;5.694;2022-08-25T00:07:03;22.00;99.90
46676;DHT22;32412;51.478;5.694;2022-08-25T00:09:31;22.00;99.90
46676;DHT22;32412;51.478;5.694;2022-08-25T00:11:57;22.00;99.90
46676;DHT22;32412;51.478;5.694;2022-08-25T00:14:26;21.90;99.90
46676;DHT22;32412;51.478;5.694;2022-08-25T00:16:52;21.90;99.90
46676;DHT22;32412;51.478;5.694;2022-08-25T00:19:22;21.80;99.90
46676;DHT22;32412;51.478;5.694;2022-08-25T00:21:48;21.80;99.90
46676;DHT22;32412;51.478;5.694;2022-08-25T00:24:15;21.80;99.90
46676;DHT22;32412;51.478;5.694;2022-08-25T00:26:44;21.70;99.90
46676;DHT22;32412;51.478;5.694;2022-08-25T00:29:10;21.70;99.90
46676;DHT22;32412;51.478;5.694;2022-08-25T00:31:37;21.60;99.90
46676;DHT22;32412;51.478;5.694;2022-08-25T00:34:04;21.60;99.90
46676;DHT22;32412;51.478;5.694;2022-08-25T00:36:32;21.50;99.90
46676;DHT22;32412;51.478;5.694;2022-08-25T00:38:58;21.50;99.90
46676;DHT22;32412;51.478;5.694;2022-08-25T00:41:24;21.40;99.90
46676;DHT22;32412;51.478;5.694;2022-08-25T00:43:56;21.40;99.90
46676;DHT22;32412;51.478;5.694;2022-08-25T00:46:30;21.30;99.90
46676;DHT22;32412;51.478;5.694;2022-08-25T00:49:06;21.30;99.90
46676;DHT22;32412;51.478;5.694;2022-08-25T00:51:54;21.20;99.90
46676;DHT22;32412;51.478;5.694;2022-08-25T00:54:27;21.20;99.90
46676;DHT22;32412;51.478;5.694;2022-08-25T00:56:54;21.20;99.90
46676;DHT22;32412;51.478;5.694;2022-08-25T00:59:22;21.10;99.90
46676;DHT22;32412;51.478;5.694;2022-08-25T01:01:49;21.10;99.90
46676;DHT22;32412;51.478;5.694;2022-08-25T01:04:16;21.00;99.90
46676;DHT22;32412;51.478;5.694;2022-08-25T01:06:42;20.90;99.90
46676;DHT22;32412;51.478;5.694;2022-08-25T01:09:10;20.90;99.90
46676;DHT22;32412;51.478;5.694;2022-08-25T01:11:36;20.80;99.90
46676;DHT22;32412;51.478;5.694;2022-08-25T01:14:03;20.70;99.90
46676;DHT22;32412;51.478;5.694;2022-08-25T01:16:35;20.70;99.90
46676;DHT22;32412;51.478;5.694;2022-08-25T01:19:01;20.60;99.90
46676;DHT22;32412;51.478;5.694;2022-08-25T01:21:28;20.60;99.90
46676;DHT22;32412;51.478;5.694;2022-08-25T01:23:56;20.50;99.90
46676;DHT22;32412;51.478;5.694;2022-08-25T01:26:29;20.40;99.90
46676;DHT22;32412;51.478;5.694;2022-08-25T01:28:57;20.40;99.90
46676;DHT22;32412;51.478;5.694;2022-08-25T01:31:41;20.40;99.90
46676;DHT22;32412;51.478;5.694;2022-08-25T01:34:08;20.30;99.90
46676;DHT22;32412;51.478;5.694;2022-08-25T01:36:35;20.30;99.90
46676;DHT22;32412;51.478;5.694;2022-08-25T01:39:01;20.20;99.90
46676;DHT22;32412;51.478;5.694;2022-08-25T01:44:00;20.10;99.90
46676;DHT22;32412;51.478;5.694;2022-08-25T01:46:26;20.10;99.90
46676;DHT22;32412;51.478;5.694;2022-08-25T01:48:52;20.00;99.90
46676;DHT22;32412;51.478;5.694;2022-08-25T01:51:20;20.00;99.90
46676;DHT22;32412;51.478;5.694;2022-08-25T01:53:48;19.90;99.90
46676;DHT22;32412;51.478;5.694;2022-08-25T01:56:15;19.90;99.90
46676;DHT22;32412;51.478;5.694;2022-08-25T01:58:44;19.90;99.90
46676;DHT22;32412;51.478;5.694;2022-08-25T02:01:18;19.80;99.90
46676;DHT22;32412;51.478;5.694;2022-08-25T02:03:46;19.80;99.90
46676;DHT22;32412;51.478;5.694;2022-08-25T02:06:15;19.80;99.90
46676;DHT22;32412;51.478;5.694;2022-08-25T02:08:41;19.80;99.90
46676;DHT22;32412;51.478;5.694;2022-08-25T02:11:12;19.70;99.90
46676;DHT22;32412;51.478;5.694;2022-08-25T02:13:39;19.70;99.90
46676;DHT22;32412;51.478;5.694;2022-08-25T02:16:06;19.70;99.90
46676;DHT22;32412;51.478;5.694;2022-08-25T02:18:33;19.70;99.90
46676;DHT22;32412;51.478;5.694;2022-08-25T02:20:59;19.80;99.90
46676;DHT22;32412;51.478;5.694;2022-08-25T02:23:24;19.90;99.90
46676;DHT22;32412;51.478;5.694;2022-08-25T02:25:51;19.90;99.90
46676;DHT22;32412;51.478;5.694;2022-08-25T02:28:16;19.90;99.90
46676;DHT22;32412;51.478;5.694;2022-08-25T02:30:42;19.90;99.90
46676;DHT22;32412;51.478;5.694;2022-08-25T02:33:09;19.90;99.90
46676;DHT22;32412;51.478;5.694;2022-08-25T02:35:35;19.90;99.90
46676;DHT22;32412;51.478;5.694;2022-08-25T02:38:01;20.00;99.90
46676;DHT22;32412;51.478;5.694;2022-08-25T02:40:26;19.90;99.90
46676;DHT22;32412;51.478;5.694;2022-08-25T02:42:52;19.90;99.90
46676;DHT22;32412;51.478;5.694;2022-08-25T02:45:18;19.90;99.90
46676;DHT22;32412;51.478;5.694;2022-08-25T02:47:44;19.80;99.90
46676;DHT22;32412;51.478;5.694;2022-08-25T02:50:10;19.80;99.90
46676;DHT22;32412;51.478;5.694;2022-08-25T02:52:37;19.80;99.90
46676;DHT22;32412;51.478;5.694;2022-08-25T02:55:06;19.80;99.90
46676;DHT22;32412;51.478;5.694;2022-08-25T02:57:32;19.80;99.90
46676;DHT22;32412;51.478;5.694;2022-08-25T02:59:58;19.70;99.90
46676;DHT22;32412;51.478;5.694;2022-08-25T03:02:25;19.80;99.90
46676;DHT22;32412;51.478;5.694;2022-08-25T03:04:51;19.80;99.90
46676;DHT22;32412;51.478;5.694;2022-08-25T03:07:18;19.70;99.90
46676;DHT22;32412;51.478;5.694;2022-08-25T03:09:45;19.70;99.90
46676;DHT22;32412;51.478;5.694;2022-08-25T03:12:11;19.70;99.90
46676;DHT22;32412;51.478;5.694;2022-08-25T03:14:38;19.70;99.90
46676;DHT22;32412;51.478;5.694;2022-08-25T03:17:05;19.70;99.90
46676;DHT22;32412;51.478;5.694;2022-08-25T03:19:30;19.70;99.90
46676;DHT22;32412;51.478;5.694;2022-08-25T03:21:56;19.70;99.90
46676;DHT22;32412;51.478;5.694;2022-08-25T03:24:25;19.80;99.90
46676;DHT22;32412;51.478;5.694;2022-08-25T03:26:51;19.80;99.90
46676;DHT22;32412;51.478;5.694;2022-08-25T03:29:29;19.80;99.90
46676;DHT22;32412;51.478;5.694;2022-08-25T03:31:56;19.80;99.90
46676;DHT22;32412;51.478;5.694;2022-08-25T03:34:26;19.80;99.90
46676;DHT22;32412;51.478;5.694;2022-08-25T03:36:53;19.80;99.90
46676;DHT22;32412;51.478;5.694;2022-08-25T03:39:21;19.80;99.90
46676;DHT22;32412;51.478;5.694;2022-08-25T03:41:47;19.80;99.90
46676;DHT22;32412;51.478;5.694;2022-08-25T03:44:13;19.80;99.90
46676;DHT22;32412;51.478;5.694;2022-08-25T03:46:43;19.70;99.90
46676;DHT22;32412;51.478;5.694;2022-08-25T03:49:14;19.70;99.90
46676;DHT22;32412;51.478;5.694;2022-08-25T03:51:43;19.70;99.90
46676;DHT22;32412;51.478;5.694;2022-08-25T03:54:10;19.70;99.90
46676;DHT22;32412;51.478;5.694;2022-08-25T03:56:36;19.60;99.90
46676;DHT22;32412;51.478;5.694;2022-08-25T03:59:02;19.60;99.90
46676;DHT22;32412;51.478;5.694;2022-08-25T04:01:28;19.50;99.90
46676;DHT22;32412;51.478;5.694;2022-08-25T04:03:54;19.50;99.90
46676;DHT22;32412;51.478;5.694;2022-08-25T04:06:20;19.50;99.90
46676;DHT22;32412;51.478;5.694;2022-08-25T04:08:46;19.50;99.90
46676;DHT22;32412;51.478;5.694;2022-08-25T04:11:19;19.50;99.90
46676;DHT22;32412;51.478;5.694;2022-08-25T04:13:46;19.50;99.90
46676;DHT22;32412;51.478;5.694;2022-08-25T04:16:14;19.50;99.90
46676;DHT22;32412;51.478;5.694;2022-08-25T04:18:41;19.50;99.90
46676;DHT22;32412;51.478;5.694;2022-08-25T04:21:08;19.60;99.90
46676;DHT22;32412;51.478;5.694;2022-08-25T04:23:36;19.60;99.90
46676;DHT22;32412;51.478;5.694;2022-08-25T04:26:24;19.60;99.90
46676;DHT22;32412;51.478;5.694;2022-08-25T04:28:49;19.60;99.90
46676;DHT22;32412;51.478;5.694;2022-08-25T04:31:16;19.70;99.90
46676;DHT22;32412;51.478;5.694;2022-08-25T04:33:42;19.70;99.90
46676;DHT22;32412;51.478;5.694;2022-08-25T04:36:09;19.70;99.90
46676;DHT22;32412;51.478;5.694;2022-08-25T04:38:37;19.70;99.90
46676;DHT22;32412;51.478;5.694;2022-08-25T04:41:04;19.80;99.90
46676;DHT22;32412;51.478;5.694;2022-08-25T04:43:31;19.80;99.90
46676;DHT22;32412;51.478;5.694;2022-08-25T04:45:57;19.80;99.90
46676;DHT22;32412;51.478;5.694;2022-08-25T04:48:24;19.90;99.90
46676;DHT22;32412;51.478;5.694;2022-08-25T04:50:49;19.90;99.90
46676;DHT22;32412;51.478;5.694;2022-08-25T04:53:16;19.90;99.90
46676;DHT22;32412;51.478;5.694;2022-08-25T04:55:44;20.00;99.90
46676;DHT22;32412;51.478;5.694;2022-08-25T04:58:12;20.00;99.90
46676;DHT22;32412;51.478;5.694;2022-08-25T05:00:38;20.00;99.90
46676;DHT22;32412;51.478;5.694;2022-08-25T05:03:05;20.00;99.90
46676;DHT22;32412;51.478;5.694;2022-08-25T05:05:31;20.00;99.90
46676;DHT22;32412;51.478;5.694;2022-08-25T05:07:57;20.00;99.90
46676;DHT22;32412;51.478;5.694;2022-08-25T05:10:24;20.00;99.90
46676;DHT22;32412;51.478;5.694;2022-08-25T05:12:49;20.10;99.90
46676;DHT22;32412;51.478;5.694;2022-08-25T05:15:15;20.10;99.90
46676;DHT22;32412;51.478;5.694;2022-08-25T05:17:59;20.20;99.90
46676;DHT22;32412;51.478;5.694;2022-08-25T05:20:25;20.10;99.90
46676;DHT22;32412;51.478;5.694;2022-08-25T05:22:51;20.20;99.90
46676;DHT22;32412;51.478;5.694;2022-08-25T05:25:17;20.20;99.90
46676;DHT22;32412;51.478;5.694;2022-08-25T05:27:42;20.30;99.90
46676;DHT22;32412;51.478;5.694;2022-08-25T05:30:11;20.40;99.90
46676;DHT22;32412;51.478;5.694;2022-08-25T05:32:37;20.40;99.90
46676;DHT22;32412;51.478;5.694;2022-08-25T05:35:04;20.50;99.90
46676;DHT22;32412;51.478;5.694;2022-08-25T05:37:30;20.50;99.90
46676;DHT22;32412;51.478;5.694;2022-08-25T05:39:56;20.60;99.90
46676;DHT22;32412;51.478;5.694;2022-08-25T05:42:22;20.70;99.90
46676;DHT22;32412;51.478;5.694;2022-08-25T05:44:48;20.70;99.90
46676;DHT22;32412;51.478;5.694;2022-08-25T05:47:15;20.80;99.90
46676;DHT22;32412;51.478;5.694;2022-08-25T05:49:41;20.80;99.90
46676;DHT22;32412;51.478;5.694;2022-08-25T05:52:07;21.00;99.90
46676;DHT22;32412;51.478;5.694;2022-08-25T05:54:32;20.90;99.90
46676;DHT22;32412;51.478;5.694;2022-08-25T05:56:58;21.00;99.90
46676;DHT22;32412;51.478;5.694;2022-08-25T05:59:24;21.20;99.90
46676;DHT22;32412;51.478;5.694;2022-08-25T06:01:50;21.20;99.90
46676;DHT22;32412;51.478;5.694;2022-08-25T06:04:34;21.30;99.90
46676;DHT22;32412;51.478;5.694;2022-08-25T06:07:00;21.40;99.90
46676;DHT22;32412;51.478;5.694;2022-08-25T06:09:32;21.50;99.90
46676;DHT22;32412;51.478;5.694;2022-08-25T06:11:58;21.60;99.90
46676;DHT22;32412;51.478;5.694;2022-08-25T06:14:23;21.70;99.90
46676;DHT22;32412;51.478;5.694;2022-08-25T06:16:52;21.80;99.90
46676;DHT22;32412;51.478;5.694;2022-08-25T06:19:18;21.80;99.90
46676;DHT22;32412;51.478;5.694;2022-08-25T06:21:43;21.90;99.90
46676;DHT22;32412;51.478;5.694;2022-08-25T06:24:09;22.00;99.90
46676;DHT22;32412;51.478;5.694;2022-08-25T06:26:36;22.10;99.90
46676;DHT22;32412;51.478;5.694;2022-08-25T06:29:02;22.20;99.90
46676;DHT22;32412;51.478;5.694;2022-08-25T06:31:28;22.20;99.90
46676;DHT22;32412;51.478;5.694;2022-08-25T06:33:54;22.30;99.90
46676;DHT22;32412;51.478;5.694;2022-08-25T06:36:19;22.40;99.90
46676;DHT22;32412;51.478;5.694;2022-08-25T06:38:46;22.50;99.90
46676;DHT22;32412;51.478;5.694;2022-08-25T06:41:12;22.60;99.90
46676;DHT22;32412;51.478;5.694;2022-08-25T06:43:39;22.70;99.90
46676;DHT22;32412;51.478;5.694;2022-08-25T06:46:10;22.80;99.90
46676;DHT22;32412;51.478;5.694;2022-08-25T06:48:36;22.90;99.90
46676;DHT22;32412;51.478;5.694;2022-08-25T06:51:07;22.90;99.90
46676;DHT22;32412;51.478;5.694;2022-08-25T06:53:33;23.00;99.90
46676;DHT22;32412;51.478;5.694;2022-08-25T06:55:59;23.20;99.90
46676;DHT22;32412;51.478;5.694;2022-08-25T06:58:25;23.30;99.90
46676;DHT22;32412;51.478;5.694;2022-08-25T07:00:51;23.40;99.90
46676;DHT22;32412;51.478;5.694;2022-08-25T07:03:17;23.50;99.90
46676;DHT22;32412;51.478;5.694;2022-08-25T07:05:52;23.60;99.90
46676;DHT22;32412;51.478;5.694;2022-08-25T07:08:19;23.70;99.90
46676;DHT22;32412;51.478;5.694;2022-08-25T07:10:45;23.90;99.90
46676;DHT22;32412;51.478;5.694;2022-08-25T07:13:11;24.00;99.90
46676;DHT22;32412;51.478;5.694;2022-08-25T07:15:37;24.20;99.90
46676;DHT22;32412;51.478;5.694;2022-08-25T07:18:04;24.30;99.90
46676;DHT22;32412;51.478;5.694;2022-08-25T07:20:30;24.50;99.90
46676;DHT22;32412;51.478;5.694;2022-08-25T07:22:56;24.60;99.90
46676;DHT22;32412;51.478;5.694;2022-08-25T07:25:22;24.70;99.90
46676;DHT22;32412;51.478;5.694;2022-08-25T07:27:47;24.90;99.90
46676;DHT22;32412;51.478;5.694;2022-08-25T07:30:15;24.90;99.90
46676;DHT22;32412;51.478;5.694;2022-08-25T07:32:41;25.10;99.90
46676;DHT22;32412;51.478;5.694;2022-08-25T07:35:06;25.30;99.90
46676;DHT22;32412;51.478;5.694;2022-08-25T07:37:49;25.40;99.90
46676;DHT22;32412;51.478;5.694;2022-08-25T07:40:35;25.70;99.90
46676;DHT22;32412;51.478;5.694;2022-08-25T07:43:05;25.80;99.90
46676;DHT22;32412;51.478;5.694;2022-08-25T07:45:34;25.90;99.90
46676;DHT22;32412;51.478;5.694;2022-08-25T07:48:04;26.00;99.90
46676;DHT22;32412;51.478;5.694;2022-08-25T07:50:32;26.00;99.90
46676;DHT22;32412;51.478;5.694;2022-08-25T07:52:58;26.10;99.90
46676;DHT22;32412;51.478;5.694;2022-08-25T07:55:25;26.20;99.90
46676;DHT22;32412;51.478;5.694;2022-08-25T07:57:52;26.30;99.90
46676;DHT22;32412;51.478;5.694;2022-08-25T08:00:18;26.50;99.90
46676;DHT22;32412;51.478;5.694;2022-08-25T08:02:45;26.70;99.90
46676;DHT22;32412;51.478;5.694;2022-08-25T08:05:12;26.70;99.90
46676;DHT22;32412;51.478;5.694;2022-08-25T08:07:37;26.80;99.70
46676;DHT22;32412;51.478;5.694;2022-08-25T08:10:05;26.90;99.50
46676;DHT22;32412;51.478;5.694;2022-08-25T08:12:32;27.10;99.00
46676;DHT22;32412;51.478;5.694;2022-08-25T08:14:58;27.20;99.20
46676;DHT22;32412;51.478;5.694;2022-08-25T08:17:24;27.30;99.30
46676;DHT22;32412;51.478;5.694;2022-08-25T08:19:50;27.40;98.80
46676;DHT22;32412;51.478;5.694;2022-08-25T08:22:17;27.50;98.80
46676;DHT22;32412;51.478;5.694;2022-08-25T08:24:44;27.50;98.20
46676;DHT22;32412;51.478;5.694;2022-08-25T08:27:11;27.70;98.60
46676;DHT22;32412;51.478;5.694;2022-08-25T08:29:39;27.90;98.50
46676;DHT22;32412;51.478;5.694;2022-08-25T08:32:10;28.10;98.70
46676;DHT22;32412;51.478;5.694;2022-08-25T08:34:38;28.10;97.20
46676;DHT22;32412;51.478;5.694;2022-08-25T08:37:05;28.20;98.00
46676;DHT22;32412;51.478;5.694;2022-08-25T08:39:31;28.30;97.70
46676;DHT22;32412;51.478;5.694;2022-08-25T08:45:24;28.40;98.30
46676;DHT22;32412;51.478;5.694;2022-08-25T08:47:53;28.50;98.00
46676;DHT22;32412;51.478;5.694;2022-08-25T08:53:18;28.70;97.70
46676;DHT22;32412;51.478;5.694;2022-08-25T08:56:03;28.80;97.80
46676;DHT22;32412;51.478;5.694;2022-08-25T08:58:51;28.80;98.10
46676;DHT22;32412;51.478;5.694;2022-08-25T09:01:25;28.90;97.30
46676;DHT22;32412;51.478;5.694;2022-08-25T09:04:02;29.00;97.60
46676;DHT22;32412;51.478;5.694;2022-08-25T09:06:41;29.20;97.20
46676;DHT22;32412;51.478;5.694;2022-08-25T09:09:08;29.30;96.40
46676;DHT22;32412;51.478;5.694;2022-08-25T09:25:46;30.20;95.10
46676;DHT22;32412;51.478;5.694;2022-08-25T09:31:10;30.80;94.50
46676;DHT22;32412;51.478;5.694;2022-08-25T09:33:37;31.10;94.90
46676;DHT22;32412;51.478;5.694;2022-08-25T09:36:03;31.50;94.40
46676;DHT22;32412;51.478;5.694;2022-08-25T09:38:29;31.80;94.50
46676;DHT22;32412;51.478;5.694;2022-08-25T09:40:58;32.20;94.00
46676;DHT22;32412;51.478;5.694;2022-08-25T09:46:12;32.90;94.00
46676;DHT22;32412;51.478;5.694;2022-08-25T09:48:48;33.60;93.50
46676;DHT22;32412;51.478;5.694;2022-08-25T09:51:23;33.90;93.00
46676;DHT22;32412;51.478;5.694;2022-08-25T09:53:59;33.70;92.80
46676;DHT22;32412;51.478;5.694;2022-08-25T09:56:29;34.30;92.70
46676;DHT22;32412;51.478;5.694;2022-08-25T09:59:23;35.10;92.50
46676;DHT22;32412;51.478;5.694;2022-08-25T10:01:50;35.70;91.70
46676;DHT22;32412;51.478;5.694;2022-08-25T10:04:25;36.20;90.60
46676;DHT22;32412;51.478;5.694;2022-08-25T10:06:51;36.90;90.50
46676;DHT22;32412;51.478;5.694;2022-08-25T10:09:37;37.00;90.20
46676;DHT22;32412;51.478;5.694;2022-08-25T10:12:24;37.80;89.60
46676;DHT22;32412;51.478;5.694;2022-08-25T10:14:54;38.10;87.80
46676;DHT22;32412;51.478;5.694;2022-08-25T10:20:36;37.80;86.80
46676;DHT22;32412;51.478;5.694;2022-08-25T10:22:42;38.00;85.10
46676;DHT22;32412;51.478;5.694;2022-08-25T10:25:11;37.80;85.50
46676;DHT22;32412;51.478;5.694;2022-08-25T10:28:04;37.50;85.40
46676;DHT22;32412;51.478;5.694;2022-08-25T10:42:26;38.80;84.10
46676;DHT22;32412;51.478;5.694;2022-08-25T10:45:25;39.60;83.30
46676;DHT22;32412;51.478;5.694;2022-08-25T10:51:32;39.10;80.90
46676;DHT22;32412;51.478;5.694;2022-08-25T10:59:50;38.20;79.50
46676;DHT22;32412;51.478;5.694;2022-08-25T11:05:29;38.50;80.00
46676;DHT22;32412;51.478;5.694;2022-08-25T11:10:40;38.70;77.80
46676;DHT22;32412;51.478;5.694;2022-08-25T11:13:16;38.80;78.40
46676;DHT22;32412;51.478;5.694;2022-08-25T11:15:57;38.60;76.90
46676;DHT22;32412;51.478;5.694;2022-08-25T11:18:28;38.30;77.50
46676;DHT22;32412;51.478;5.694;2022-08-25T11:21:19;37.90;76.60
46676;DHT22;32412;51.478;5.694;2022-08-25T11:23:54;37.20;77.00
46676;DHT22;32412;51.478;5.694;2022-08-25T11:26:29;36.40;78.80
46676;DHT22;32412;51.478;5.694;2022-08-25T11:29:12;36.00;78.90
46676;DHT22;32412;51.478;5.694;2022-08-25T11:31:43;35.60;79.60
46676;DHT22;32412;51.478;5.694;2022-08-25T11:34:12;35.50;78.90
46676;DHT22;32412;51.478;5.694;2022-08-25T11:36:41;35.50;79.40
46676;DHT22;32412;51.478;5.694;2022-08-25T11:39:27;35.80;77.40
46676;DHT22;32412;51.478;5.694;2022-08-25T11:50:36;38.10;75.40
46676;DHT22;32412;51.478;5.694;2022-08-25T11:53:27;38.70;74.90
46676;DHT22;32412;51.478;5.694;2022-08-25T11:56:02;38.90;74.80
46676;DHT22;32412;51.478;5.694;2022-08-25T11:58:45;39.10;74.30
46676;DHT22;32412;51.478;5.694;2022-08-25T12:04:31;40.80;73.00
46676;DHT22;32412;51.478;5.694;2022-08-25T12:10:08;41.00;71.90
46676;DHT22;32412;51.478;5.694;2022-08-25T12:12:56;41.50;70.80
46676;DHT22;32412;51.478;5.694;2022-08-25T12:15:32;42.40;71.80
46676;DHT22;32412;51.478;5.694;2022-08-25T12:23:45;40.80;69.50
46676;DHT22;32412;51.478;5.694;2022-08-25T12:31:58;39.80;70.70
46676;DHT22;32412;51.478;5.694;2022-08-25T12:37:14;39.60;70.70
46676;DHT22;32412;51.478;5.694;2022-08-25T12:42:26;40.70;70.30
46676;DHT22;32412;51.478;5.694;2022-08-25T12:45:13;40.30;69.10
46676;DHT22;32412;51.478;5.694;2022-08-25T12:51:16;41.10;68.40
46676;DHT22;32412;51.478;5.694;2022-08-25T12:53:50;40.90;68.30
46676;DHT22;32412;51.478;5.694;2022-08-25T12:56:37;41.20;68.70
46676;DHT22;32412;51.478;5.694;2022-08-25T12:59:20;39.80;68.60
46676;DHT22;32412;51.478;5.694;2022-08-25T13:04:54;36.80;69.60
46676;DHT22;32412;51.478;5.694;2022-08-25T13:07:38;36.10;71.40
46676;DHT22;32412;51.478;5.694;2022-08-25T13:16:19;34.60;71.80
46676;DHT22;32412;51.478;5.694;2022-08-25T13:18:45;34.50;73.00
46676;DHT22;32412;51.478;5.694;2022-08-25T13:23:46;33.90;73.40
46676;DHT22;32412;51.478;5.694;2022-08-25T13:26:32;33.70;72.90
46676;DHT22;32412;51.478;5.694;2022-08-25T13:29:48;33.50;75.00
46676;DHT22;32412;51.478;5.694;2022-08-25T13:34:32;33.60;73.60
46676;DHT22;32412;51.478;5.694;2022-08-25T13:37:22;33.30;73.50
46676;DHT22;32412;51.478;5.694;2022-08-25T13:40:28;33.20;74.10
46676;DHT22;32412;51.478;5.694;2022-08-25T13:42:59;32.80;74.40
46676;DHT22;32412;51.478;5.694;2022-08-25T13:45:27;32.80;74.60
46676;DHT22;32412;51.478;5.694;2022-08-25T13:47:54;32.80;74.20
46676;DHT22;32412;51.478;5.694;2022-08-25T13:53:10;32.80;74.30
46676;DHT22;32412;51.478;5.694;2022-08-25T13:55:52;32.80;74.30
46676;DHT22;32412;51.478;5.694;2022-08-25T13:58:32;33.20;75.40
46676;DHT22;32412;51.478;5.694;2022-08-25T14:01:23;33.50;74.40
46676;DHT22;32412;51.478;5.694;2022-08-25T14:03:51;33.50;74.50
46676;DHT22;32412;51.478;5.694;2022-08-25T14:06:21;33.30;73.30
46676;DHT22;32412;51.478;5.694;2022-08-25T14:09:02;33.10;73.80
46676;DHT22;32412;51.478;5.694;2022-08-25T14:17:13;33.00;73.90
46676;DHT22;32412;51.478;5.694;2022-08-25T14:19:44;33.20;72.10
46676;DHT22;32412;51.478;5.694;2022-08-25T14:22:12;33.70;71.70
46676;DHT22;32412;51.478;5.694;2022-08-25T14:24:39;34.10;71.90
46676;DHT22;32412;51.478;5.694;2022-08-25T14:27:04;34.50;72.40
46676;DHT22;32412;51.478;5.694;2022-08-25T14:29:31;34.30;71.30
46676;DHT22;32412;51.478;5.694;2022-08-25T14:31:57;34.40;70.90
46676;DHT22;32412;51.478;5.694;2022-08-25T14:34:26;34.10;70.20
46676;DHT22;32412;51.478;5.694;2022-08-25T14:36:53;33.80;71.00
46676;DHT22;32412;51.478;5.694;2022-08-25T14:39:19;33.40;71.50
46676;DHT22;32412;51.478;5.694;2022-08-25T14:41:45;33.00;72.30
46676;DHT22;32412;51.478;5.694;2022-08-25T14:44:12;32.70;73.20
46676;DHT22;32412;51.478;5.694;2022-08-25T14:46:51;32.60;74.20
46676;DHT22;32412;51.478;5.694;2022-08-25T14:49:23;32.60;72.50
46676;DHT22;32412;51.478;5.694;2022-08-25T14:51:52;32.60;72.40
46676;DHT22;32412;51.478;5.694;2022-08-25T14:54:26;32.50;72.10
46676;DHT22;32412;51.478;5.694;2022-08-25T14:56:52;32.40;72.80
46676;DHT22;32412;51.478;5.694;2022-08-25T14:59:18;32.30;72.90
46676;DHT22;32412;51.478;5.694;2022-08-25T15:01:44;32.20;72.90
46676;DHT22;32412;51.478;5.694;2022-08-25T15:04:14;32.10;72.70
46676;DHT22;32412;51.478;5.694;2022-08-25T15:06:40;32.10;72.90
46676;DHT22;32412;51.478;5.694;2022-08-25T15:09:09;32.10;73.30
46676;DHT22;32412;51.478;5.694;2022-08-25T15:11:47;32.20;73.50
46676;DHT22;32412;51.478;5.694;2022-08-25T15:14:14;32.00;72.10
46676;DHT22;32412;51.478;5.694;2022-08-25T15:16:45;32.10;72.50
46676;DHT22;32412;51.478;5.694;2022-08-25T15:19:12;31.90;72.60
46676;DHT22;32412;51.478;5.694;2022-08-25T15:21:44;32.00;73.80
46676;DHT22;32412;51.478;5.694;2022-08-25T15:24:11;32.20;73.60
46676;DHT22;32412;51.478;5.694;2022-08-25T15:26:52;32.20;72.90
46676;DHT22;32412;51.478;5.694;2022-08-25T15:29:19;32.20;72.30
46676;DHT22;32412;51.478;5.694;2022-08-25T15:31:45;32.30;73.20
46676;DHT22;32412;51.478;5.694;2022-08-25T15:34:12;32.40;73.70
46676;DHT22;32412;51.478;5.694;2022-08-25T15:36:38;32.40;73.00
46676;DHT22;32412;51.478;5.694;2022-08-25T15:39:05;32.40;72.60
46676;DHT22;32412;51.478;5.694;2022-08-25T15:41:31;32.70;73.50
46676;DHT22;32412;51.478;5.694;2022-08-25T15:43:57;33.30;72.50
46676;DHT22;32412;51.478;5.694;2022-08-25T15:46:26;33.90;71.70
46676;DHT22;32412;51.478;5.694;2022-08-25T15:48:55;33.70;72.30
46676;DHT22;32412;51.478;5.694;2022-08-25T15:51:21;33.50;72.00
46676;DHT22;32412;51.478;5.694;2022-08-25T15:53:47;33.50;73.10
46676;DHT22;32412;51.478;5.694;2022-08-25T15:56:13;33.20;73.60
46676;DHT22;32412;51.478;5.694;2022-08-25T15:58:42;33.00;73.60
46676;DHT22;32412;51.478;5.694;2022-08-25T16:01:27;32.90;72.70
46676;DHT22;32412;51.478;5.694;2022-08-25T16:03:54;32.80;73.60
46676;DHT22;32412;51.478;5.694;2022-08-25T16:06:20;32.80;74.20
46676;DHT22;32412;51.478;5.694;2022-08-25T16:08:46;32.60;74.50
46676;DHT22;32412;51.478;5.694;2022-08-25T16:11:21;32.40;72.40
46676;DHT22;32412;51.478;5.694;2022-08-25T16:13:48;32.30;74.10
46676;DHT22;32412;51.478;5.694;2022-08-25T16:16:14;32.10;74.60
46676;DHT22;32412;51.478;5.694;2022-08-25T16:18:42;32.00;75.10
46676;DHT22;32412;51.478;5.694;2022-08-25T16:21:14;31.90;75.50
46676;DHT22;32412;51.478;5.694;2022-08-25T16:23:40;32.00;75.40
46676;DHT22;32412;51.478;5.694;2022-08-25T16:26:08;31.90;75.00
46676;DHT22;32412;51.478;5.694;2022-08-25T16:28:35;32.00;75.40
46676;DHT22;32412;51.478;5.694;2022-08-25T16:31:01;32.20;75.40
46676;DHT22;32412;51.478;5.694;2022-08-25T16:33:27;32.40;75.00
46676;DHT22;32412;51.478;5.694;2022-08-25T16:35:52;32.60;74.70
46676;DHT22;32412;51.478;5.694;2022-08-25T16:38:18;32.60;75.60
46676;DHT22;32412;51.478;5.694;2022-08-25T16:40:45;32.50;75.10
46676;DHT22;32412;51.478;5.694;2022-08-25T16:43:11;32.50;75.40
46676;DHT22;32412;51.478;5.694;2022-08-25T16:45:37;32.50;75.10
46676;DHT22;32412;51.478;5.694;2022-08-25T16:48:04;32.50;75.10
46676;DHT22;32412;51.478;5.694;2022-08-25T16:50:30;32.30;75.30
46676;DHT22;32412;51.478;5.694;2022-08-25T16:52:57;32.20;75.30
46676;DHT22;32412;51.478;5.694;2022-08-25T16:55:42;32.20;76.40
46676;DHT22;32412;51.478;5.694;2022-08-25T16:58:08;32.00;75.90
46676;DHT22;32412;51.478;5.694;2022-08-25T17:00:37;31.80;75.60
46676;DHT22;32412;51.478;5.694;2022-08-25T17:03:04;31.70;76.10
46676;DHT22;32412;51.478;5.694;2022-08-25T17:05:31;31.60;76.30
46676;DHT22;32412;51.478;5.694;2022-08-25T17:08:01;31.40;76.40
46676;DHT22;32412;51.478;5.694;2022-08-25T17:10:46;31.40;76.40
46676;DHT22;32412;51.478;5.694;2022-08-25T17:13:12;31.30;76.80
46676;DHT22;32412;51.478;5.694;2022-08-25T17:15:40;31.20;77.30
46676;DHT22;32412;51.478;5.694;2022-08-25T17:18:06;31.20;77.50
46676;DHT22;32412;51.478;5.694;2022-08-25T17:20:31;31.10;76.80
46676;DHT22;32412;51.478;5.694;2022-08-25T17:22:57;31.00;77.60
46676;DHT22;32412;51.478;5.694;2022-08-25T17:25:23;30.90;77.30
46676;DHT22;32412;51.478;5.694;2022-08-25T17:27:49;30.80;77.70
46676;DHT22;32412;51.478;5.694;2022-08-25T17:30:15;30.70;78.30
46676;DHT22;32412;51.478;5.694;2022-08-25T17:32:40;30.60;78.80
46676;DHT22;32412;51.478;5.694;2022-08-25T17:35:07;30.50;79.00
46676;DHT22;32412;51.478;5.694;2022-08-25T17:37:33;30.50;79.10
46676;DHT22;32412;51.478;5.694;2022-08-25T17:39:58;30.30;79.70
46676;DHT22;32412;51.478;5.694;2022-08-25T17:42:24;30.30;79.20